| DS18B20 | SHTC3 | PZEM-004T | WiFi | ||||||||
|---|---|---|---|---|---|---|---|---|---|---|---|
| ID | Date d/m/Y & Time | data1 สูง | data2 ต่ำ | data3 นอก | temp pcb | hum pcb | Volt | Amp | Watt | rssi | Time |
| 13638 | 18/08/2026 04:36:25 | 29.4  | 29.6  | 27.1  | 30.4  | 67.6  | 229.7  | 0.04  | 4.6  | -79  | 04:36 |
| 13637 | 18/08/2026 04:31:41 | 29.4  | 29.6  | 27.0  | 30.4  | 67.6  | 231.8  | 0.04  | 4.6  | -80  | 04:31 |
| 13636 | 18/08/2026 04:26:58 | 29.4  | 29.6  | 26.9  | 30.5  | 67.4  | 229.5  | 0.04  | 4.6  | -78  | 04:26 |
| 13635 | 18/08/2026 04:22:16 | 29.5  | 29.6  | 26.9  | 30.5  | 67.5  | 231.6  | 0.04  | 4.6  | -81  | 04:22 |
| 13634 | 18/08/2026 04:17:32 | 29.5  | 29.6  | 26.9  | 30.6  | 67.4  | 230.2  | 0.04  | 4.6  | -78  | 04:17 |
| 13633 | 18/08/2026 04:12:49 | 29.5  | 29.6  | 26.8  | 30.6  | 67.5  | 229.7  | 0.04  | 4.6  | -78  | 04:12 |
| 13632 | 18/08/2026 04:08:06 | 29.6  | 29.7  | 26.9  | 30.5  | 67.5  | 227.6  | 0.04  | 4.6  | -79  | 04:08 |
| 13631 | 18/08/2026 04:03:23 | 29.6  | 29.7  | 26.9  | 30.6  | 67.6  | 232.6  | 0.04  | 4.6  | -78  | 04:03 |
| 13630 | 18/08/2026 03:58:40 | 29.6  | 29.7  | 26.9  | 30.6  | 67.6  | 231.7  | 0.04  | 4.6  | -79  | 03:58 |
| 13629 | 18/08/2026 03:53:57 | 29.6  | 29.7  | 26.7  | 30.6  | 67.4  | 232.1  | 0.04  | 4.6  | -79  | 03:53 |
| 13628 | 18/08/2026 03:49:13 | 29.6  | 29.8  | 26.9  | 30.7  | 67.3  | 234.1  | 0.04  | 4.6  | -79  | 03:49 |
| 13627 | 18/08/2026 03:44:30 | 29.6  | 29.8  | 27.1  | 30.8  | 67.4  | 230.3  | 0.04  | 4.6  | -79  | 03:44 |
| 13626 | 18/08/2026 03:39:47 | 29.7  | 29.8  | 27.1  | 30.6  | 67.4  | 233.8  | 0.04  | 4.6  | -79  | 03:39 |
| 13625 | 18/08/2026 03:35:04 | 29.7  | 29.8  | 27.0  | 30.8  | 67.3  | 231.7  | 0.04  | 4.6  | -78  | 03:35 |
| 13624 | 18/08/2026 03:30:21 | 29.8  | 29.8  | 27.0  | 30.7  | 67.4  | 232.3  | 0.04  | 4.6  | -79  | 03:30 |
| 13623 | 18/08/2026 03:25:38 | 29.8  | 29.8  | 27.0  | 30.7  | 67.4  | 231.8  | 0.04  | 4.6  | -79  | 03:25 |
| 13622 | 18/08/2026 03:20:54 | 29.8  | 29.9  | 27.0  | 30.8  | 67.4  | 231.8  | 0.04  | 4.6  | -78  | 03:20 |
| 13621 | 18/08/2026 03:16:11 | 29.8  | 29.9  | 27.2  | 31.0  | 67.5  | 232.4  | 0.04  | 4.6  | -77  | 03:16 |
| 13620 | 18/08/2026 03:11:28 | 29.8  | 29.9  | 27.2  | 30.9  | 67.3  | 230.9  | 0.04  | 4.6  | -77  | 03:11 |
| 13619 | 18/08/2026 03:06:45 | 29.8  | 29.9  | 27.2  | 30.7  | 67.2  | 233.0  | 0.04  | 4.6  | -79  | 03:06 |
| 13618 | 18/08/2026 03:02:01 | 29.8  | 29.9  | 27.2  | 30.8  | 67.2  | 233.3  | 0.04  | 4.6  | -80  | 03:02 |
| 13617 | 18/08/2026 02:57:18 | 29.9  | 29.9  | 27.3  | 30.8  | 67.3  | 232.0  | 0.04  | 4.6  | -78  | 02:57 |
| 13616 | 18/08/2026 02:52:35 | 29.9  | 29.9  | 27.3  | 30.8  | 67.2  | 235.6  | 0.04  | 4.6  | -80  | 02:52 |
| 13615 | 18/08/2026 02:47:52 | 29.9  | 30.0  | 27.4  | 31.1  | 67.4  | 234.2  | 0.04  | 4.6  | -78  | 02:47 |